createdAt,value
2023-09-27T00:00:42.404Z,16.26
2023-09-27T00:01:43.429Z,16.25
2023-09-27T00:02:44.021Z,16.23
2023-09-27T00:03:45.141Z,16.22
2023-09-27T00:04:46.660Z,16.20
2023-09-27T00:05:46.240Z,16.18
2023-09-27T00:06:46.739Z,16.16
2023-09-27T00:07:47.737Z,16.16
2023-09-27T00:08:48.210Z,16.12
2023-09-27T00:09:49.160Z,16.09
2023-09-27T00:10:49.757Z,16.09
2023-09-27T00:11:50.210Z,16.09
2023-09-27T00:12:52.672Z,16.09
2023-09-27T00:13:52.117Z,16.09
2023-09-27T00:14:53.073Z,16.09
2023-09-27T00:15:54.022Z,16.09
2023-09-27T00:16:55.007Z,16.11
2023-09-27T00:17:55.615Z,16.11
2023-09-27T00:18:56.447Z,16.11
2023-09-27T00:19:57.677Z,16.11
2023-09-27T00:20:58.666Z,16.09
2023-09-27T00:21:58.565Z,16.07
2023-09-27T00:22:59.519Z,16.07
2023-09-27T00:24:00.031Z,16.09
2023-09-27T00:25:01.643Z,16.09
2023-09-27T00:26:01.599Z,16.09
2023-09-27T00:27:03.147Z,16.09
2023-09-27T00:28:03.084Z,16.11
2023-09-27T00:29:04.721Z,16.09
2023-09-27T00:30:04.639Z,16.09
2023-09-27T00:31:05.581Z,16.07
2023-09-27T00:32:06.587Z,16.06
2023-09-27T00:33:07.042Z,16.07
2023-09-27T00:34:08.100Z,16.07
2023-09-27T00:35:08.563Z,16.03
2023-09-27T00:36:12.162Z,16.03
2023-09-27T00:37:10.725Z,16.03
2023-09-27T00:38:10.674Z,16.01
2023-09-27T00:39:12.157Z,16.03
2023-09-27T00:40:12.650Z,16.03
2023-09-27T00:41:13.182Z,16.04
2023-09-27T00:42:13.083Z,16.03
2023-09-27T00:43:14.034Z,16.03
2023-09-27T00:44:15.026Z,16.03
2023-09-27T00:45:15.928Z,16.00
2023-09-27T00:46:17.675Z,15.96
2023-09-27T00:47:17.602Z,15.97
2023-09-27T00:48:18.179Z,15.97
2023-09-27T00:49:18.634Z,15.96
2023-09-27T00:50:19.624Z,15.94
2023-09-27T00:51:20.082Z,15.94
2023-09-27T00:52:25.673Z,15.92
2023-09-27T00:53:21.669Z,15.93
2023-09-27T00:54:22.559Z,15.93
2023-09-27T00:55:24.162Z,15.96
2023-09-27T00:56:25.697Z,15.92
2023-09-27T00:57:24.991Z,15.94
2023-09-27T00:58:26.669Z,15.92
2023-09-27T00:59:26.742Z,15.86
2023-09-27T01:00:27.259Z,15.85
2023-09-27T01:01:27.718Z,15.81
2023-09-27T01:02:28.732Z,15.79
2023-09-27T01:03:30.250Z,15.78
2023-09-27T01:04:30.643Z,15.78
2023-09-27T01:05:31.146Z,15.79
2023-09-27T01:06:31.731Z,15.78
2023-09-27T01:07:32.690Z,15.81
2023-09-27T01:08:33.633Z,15.78
2023-09-27T01:09:35.175Z,15.79
2023-09-27T01:10:35.121Z,15.78
2023-09-27T01:11:36.061Z,15.75
2023-09-27T01:12:37.740Z,15.78
2023-09-27T01:13:37.735Z,15.79
2023-09-27T01:14:38.652Z,15.76
2023-09-27T01:15:39.603Z,15.76
2023-09-27T01:16:40.591Z,15.78
2023-09-27T01:17:42.217Z,15.78
2023-09-27T01:18:42.114Z,15.74
2023-09-27T01:19:43.053Z,15.72
2023-09-27T01:20:44.017Z,15.67
2023-09-27T01:21:45.174Z,15.64
2023-09-27T01:22:45.591Z,15.59
2023-09-27T01:23:46.548Z,15.60
2023-09-27T01:24:48.166Z,15.61
2023-09-27T01:25:52.797Z,15.63
2023-09-27T01:26:50.661Z,15.64
2023-09-27T01:27:50.165Z,15.61
2023-09-27T01:28:50.733Z,15.60
2023-09-27T01:29:50.726Z,15.60
2023-09-27T01:30:51.671Z,15.54
2023-09-27T01:31:52.696Z,15.57
2023-09-27T01:32:53.677Z,15.56
2023-09-27T01:33:54.081Z,15.54
2023-09-27T01:34:55.091Z,15.48
2023-09-27T01:35:56.161Z,15.49
2023-09-27T01:36:56.134Z,15.45
2023-09-27T01:37:57.096Z,15.46
2023-09-27T01:38:58.716Z,15.45
2023-09-27T01:39:58.650Z,15.43
2023-09-27T01:41:01.222Z,15.45
2023-09-27T01:42:00.113Z,15.45
2023-09-27T01:43:01.055Z,15.46
2023-09-27T01:44:02.055Z,15.49
2023-09-27T01:45:02.483Z,15.49
2023-09-27T01:46:03.460Z,15.46
2023-09-27T01:47:04.703Z,15.45
2023-09-27T01:48:04.691Z,15.42
2023-09-27T01:49:05.625Z,15.35
2023-09-27T01:50:07.227Z,15.35
2023-09-27T01:51:07.137Z,15.35
2023-09-27T01:52:08.050Z,15.38
2023-09-27T01:53:09.101Z,15.35
2023-09-27T01:54:10.278Z,15.35
2023-09-27T01:55:11.177Z,15.28
2023-09-27T01:56:11.147Z,15.27
2023-09-27T01:57:12.073Z,15.28
2023-09-27T01:58:13.666Z,15.28
2023-09-27T01:59:13.625Z,15.21
2023-09-27T02:00:15.171Z,15.26
2023-09-27T02:01:15.752Z,15.26
2023-09-27T02:02:15.746Z,15.24
2023-09-27T02:03:16.405Z,15.21
2023-09-27T02:04:17.678Z,15.19
2023-09-27T02:05:17.684Z,15.17
2023-09-27T02:06:19.725Z,15.19
2023-09-27T02:07:19.222Z,15.19
2023-09-27T02:08:19.694Z,15.21
2023-09-27T02:09:20.599Z,15.23
2023-09-27T02:10:22.177Z,15.23
2023-09-27T02:11:22.153Z,15.21
2023-09-27T02:12:23.670Z,15.19
2023-09-27T02:13:23.589Z,15.19
2023-09-27T02:14:24.600Z,15.20
2023-09-27T02:15:25.022Z,15.19
2023-09-27T02:16:26.697Z,15.17
2023-09-27T02:17:27.769Z,15.17
2023-09-27T02:18:27.197Z,15.19
2023-09-27T02:19:28.143Z,15.21
2023-09-27T02:20:29.204Z,15.21
2023-09-27T02:21:29.701Z,15.17
2023-09-27T02:22:30.691Z,15.15
2023-09-27T02:23:31.237Z,15.19
2023-09-27T02:24:31.625Z,15.21
2023-09-27T02:25:33.178Z,15.21
2023-09-27T02:26:33.132Z,15.24
2023-09-27T02:27:34.043Z,15.24
2023-09-27T02:28:35.720Z,15.26
2023-09-27T02:29:35.663Z,15.26
2023-09-27T02:30:36.599Z,15.23
2023-09-27T02:31:37.546Z,15.21
2023-09-27T02:32:39.266Z,15.23
2023-09-27T02:33:40.695Z,15.24
2023-09-27T02:34:40.689Z,15.21
2023-09-27T02:35:40.694Z,15.20
2023-09-27T02:36:42.705Z,15.20
2023-09-27T02:37:42.189Z,15.19
2023-09-27T02:38:43.113Z,15.21
2023-09-27T02:39:44.197Z,15.21
2023-09-27T02:40:45.226Z,15.23
2023-09-27T02:41:44.676Z,15.20
2023-09-27T02:42:45.615Z,15.23
2023-09-27T02:43:46.510Z,15.20
2023-09-27T02:44:48.168Z,15.21
2023-09-27T02:45:48.103Z,15.23
2023-09-27T02:46:49.055Z,15.21
2023-09-27T02:47:50.717Z,15.20
2023-09-27T02:48:52.979Z,15.19
2023-09-27T02:49:51.565Z,15.19
2023-09-27T02:50:52.487Z,15.19
2023-09-27T02:51:54.215Z,15.19
2023-09-27T02:52:54.184Z,15.17
2023-09-27T02:53:55.156Z,15.17
2023-09-27T02:54:55.625Z,15.19
2023-09-27T02:55:56.571Z,15.13
2023-09-27T02:56:57.492Z,15.13
2023-09-27T02:58:00.223Z,15.12
2023-09-27T02:58:59.252Z,15.15
2023-09-27T02:59:59.697Z,15.15
2023-09-27T03:01:01.244Z,15.17
2023-09-27T03:02:01.717Z,15.17
2023-09-27T03:03:02.192Z,15.15
2023-09-27T03:04:05.229Z,15.13
2023-09-27T03:05:03.181Z,15.09
2023-09-27T03:06:04.089Z,15.12
2023-09-27T03:07:05.000Z,15.12
2023-09-27T03:08:06.027Z,15.12
2023-09-27T03:09:06.453Z,15.12
2023-09-27T03:10:08.197Z,15.13
2023-09-27T03:11:08.723Z,15.13
2023-09-27T03:12:08.622Z,15.13
2023-09-27T03:13:09.585Z,15.12
2023-09-27T03:14:10.566Z,15.12
2023-09-27T03:15:12.062Z,15.13
2023-09-27T03:16:12.337Z,15.13
2023-09-27T03:17:13.273Z,15.12
2023-09-27T03:18:16.260Z,15.12
2023-09-27T03:19:15.137Z,15.11
2023-09-27T03:20:16.757Z,15.13
2023-09-27T03:21:16.653Z,15.12
2023-09-27T03:22:20.226Z,15.13
2023-09-27T03:23:18.186Z,15.13
2023-09-27T03:24:19.072Z,15.13
2023-09-27T03:25:20.085Z,15.13
2023-09-27T03:26:20.618Z,15.13
2023-09-27T03:27:22.186Z,15.09
2023-09-27T03:28:22.103Z,15.09
2023-09-27T03:29:24.744Z,15.09
2023-09-27T03:30:23.646Z,15.11
2023-09-27T03:31:24.637Z,15.09
2023-09-27T03:32:26.777Z,15.09
2023-09-27T03:33:25.706Z,15.09
2023-09-27T03:34:27.205Z,15.09
2023-09-27T03:35:27.228Z,15.08
2023-09-27T03:36:28.704Z,15.08
2023-09-27T03:37:28.624Z,15.05
2023-09-27T03:38:30.291Z,15.08
2023-09-27T03:39:30.261Z,15.06
2023-09-27T03:40:31.254Z,15.03
2023-09-27T03:41:31.758Z,15.03
2023-09-27T03:42:32.179Z,15.03
2023-09-27T03:43:33.718Z,15.03
2023-09-27T03:44:33.674Z,15.01
2023-09-27T03:45:34.655Z,15.01
2023-09-27T03:46:35.619Z,14.99
2023-09-27T03:47:36.585Z,14.98
2023-09-27T03:48:37.561Z,14.98
2023-09-27T03:49:38.518Z,14.98
2023-09-27T03:50:41.307Z,14.99
2023-09-27T03:51:40.702Z,15.01
2023-09-27T03:52:41.008Z,14.98
2023-09-27T03:53:41.944Z,14.99
2023-09-27T03:54:42.880Z,15.02
2023-09-27T03:55:46.719Z,14.99
2023-09-27T03:56:45.228Z,14.94
2023-09-27T03:57:45.195Z,14.90
2023-09-27T03:58:52.848Z,14.93
2023-09-27T03:59:46.856Z,14.93
2023-09-27T04:00:47.787Z,14.93
2023-09-27T04:01:48.733Z,14.95
2023-09-27T04:02:50.293Z,14.91
2023-09-27T04:03:50.387Z,14.91
2023-09-27T04:04:51.044Z,14.93
2023-09-27T04:05:51.443Z,14.91
2023-09-27T04:06:53.223Z,14.91
2023-09-27T04:07:53.206Z,14.91
2023-09-27T04:08:54.389Z,14.88
2023-09-27T04:09:54.955Z,14.87
2023-09-27T04:10:55.902Z,14.86
2023-09-27T04:11:56.859Z,14.81
2023-09-27T04:12:59.741Z,14.78
2023-09-27T04:13:59.245Z,14.72
2023-09-27T04:14:59.652Z,14.72
2023-09-27T04:16:00.586Z,14.75
2023-09-27T04:17:02.269Z,14.78
2023-09-27T04:18:02.280Z,14.78
2023-09-27T04:19:02.745Z,14.78
2023-09-27T04:20:03.709Z,14.80
2023-09-27T04:21:04.598Z,14.80
2023-09-27T04:22:05.618Z,14.72
2023-09-27T04:23:07.270Z,14.71
2023-09-27T04:24:07.747Z,14.72
2023-09-27T04:25:09.743Z,14.72
2023-09-27T04:26:08.739Z,14.71
2023-09-27T04:27:10.706Z,14.72
2023-09-27T04:28:10.681Z,14.68
2023-09-27T04:29:16.316Z,14.69
2023-09-27T04:30:13.747Z,14.69
2023-09-27T04:31:15.748Z,14.69
2023-09-27T04:32:14.780Z,14.67
2023-09-27T04:33:14.699Z,14.67
2023-09-27T04:34:15.616Z,14.67
2023-09-27T04:35:18.228Z,14.64
2023-09-27T04:36:17.252Z,14.62
2023-09-27T04:37:18.234Z,14.57
2023-09-27T04:38:19.180Z,14.56
2023-09-27T04:39:20.161Z,14.57
2023-09-27T04:40:20.630Z,14.56
2023-09-27T04:41:21.647Z,14.54
2023-09-27T04:42:26.729Z,14.57
2023-09-27T04:43:22.639Z,14.56
2023-09-27T04:44:23.592Z,14.57
2023-09-27T04:45:24.523Z,14.57
2023-09-27T04:46:25.740Z,14.61
2023-09-27T04:47:26.205Z,14.61
2023-09-27T04:48:27.128Z,14.61
2023-09-27T04:49:28.038Z,14.60
2023-09-27T04:50:29.135Z,14.60
2023-09-27T04:51:29.624Z,14.54
2023-09-27T04:52:35.232Z,14.52
2023-09-27T04:53:31.184Z,14.50
2023-09-27T04:54:32.766Z,14.47
2023-09-27T04:55:35.299Z,14.46
2023-09-27T04:56:33.286Z,14.47
2023-09-27T04:57:34.723Z,14.47
2023-09-27T04:58:38.535Z,14.44
2023-09-27T04:59:36.746Z,14.44
2023-09-27T05:00:39.722Z,14.46
2023-09-27T05:01:37.361Z,14.47
2023-09-27T05:02:40.952Z,14.47
2023-09-27T05:03:41.053Z,14.47
2023-09-27T05:04:40.419Z,14.47
2023-09-27T05:05:42.308Z,14.46
2023-09-27T05:06:43.250Z,14.47
2023-09-27T05:07:42.196Z,14.44
2023-09-27T05:08:43.163Z,14.46
2023-09-27T05:09:45.765Z,14.47
2023-09-27T05:10:44.657Z,14.42
2023-09-27T05:11:48.222Z,14.43
2023-09-27T05:12:46.754Z,14.42
2023-09-27T05:13:47.228Z,14.43
2023-09-27T05:14:47.670Z,14.38
2023-09-27T05:15:49.261Z,14.37
2023-09-27T05:16:50.824Z,14.37
2023-09-27T05:17:51.898Z,14.34
2023-09-27T05:18:51.026Z,14.34
2023-09-27T05:19:51.602Z,14.34
2023-09-27T05:20:55.230Z,14.34
2023-09-27T05:21:53.141Z,14.34
2023-09-27T05:22:54.090Z,14.35
2023-09-27T05:23:55.736Z,14.35
2023-09-27T05:24:55.809Z,14.35
2023-09-27T05:25:56.186Z,14.34
2023-09-27T05:26:57.106Z,14.35
2023-09-27T05:27:58.269Z,14.37
2023-09-27T05:28:58.707Z,14.35
2023-09-27T05:30:00.276Z,14.37
2023-09-27T05:31:00.205Z,14.39
2023-09-27T05:32:01.124Z,14.42
2023-09-27T05:33:01.724Z,14.46
2023-09-27T05:34:02.145Z,14.49
2023-09-27T05:35:03.118Z,14.49
2023-09-27T05:36:04.053Z,14.47
2023-09-27T05:37:05.032Z,14.50
2023-09-27T05:38:05.954Z,14.52
2023-09-27T05:39:06.849Z,14.52
2023-09-27T05:40:07.767Z,14.54
2023-09-27T05:41:08.694Z,14.57
2023-09-27T05:42:09.763Z,14.57
2023-09-27T05:43:10.739Z,14.60
2023-09-27T05:44:12.767Z,14.60
2023-09-27T05:45:11.663Z,14.62
2023-09-27T05:46:15.249Z,14.64
2023-09-27T05:47:13.513Z,14.67
2023-09-27T05:48:16.763Z,14.69
2023-09-27T05:49:15.238Z,14.71
2023-09-27T05:50:15.480Z,14.72
2023-09-27T05:51:16.732Z,14.72
2023-09-27T05:52:16.641Z,14.75
2023-09-27T05:53:18.293Z,14.74
2023-09-27T05:54:18.740Z,14.72
2023-09-27T05:55:20.758Z,14.72
2023-09-27T05:56:19.752Z,14.72
2023-09-27T05:57:20.241Z,14.74
2023-09-27T05:58:21.237Z,14.71
2023-09-27T05:59:23.769Z,14.71
2023-09-27T06:00:22.816Z,14.68
2023-09-27T06:01:23.635Z,14.67
2023-09-27T06:02:24.816Z,14.67
2023-09-27T06:03:24.872Z,14.64
2023-09-27T06:04:27.328Z,14.62
2023-09-27T06:05:26.340Z,14.62
2023-09-27T06:06:26.762Z,14.62
2023-09-27T06:07:27.770Z,14.65
2023-09-27T06:08:30.747Z,14.65
2023-09-27T06:09:30.808Z,14.67
2023-09-27T06:10:32.782Z,14.68
2023-09-27T06:11:31.419Z,14.72
2023-09-27T06:12:31.316Z,14.75
2023-09-27T06:13:32.242Z,14.81
2023-09-27T06:14:33.795Z,14.83
2023-09-27T06:15:33.723Z,14.87
2023-09-27T06:16:39.269Z,14.94
2023-09-27T06:17:35.824Z,14.98
2023-09-27T06:18:35.865Z,14.99
2023-09-27T06:19:36.797Z,15.01
2023-09-27T06:20:39.242Z,15.02
2023-09-27T06:21:38.671Z,15.05
2023-09-27T06:22:39.560Z,15.05
2023-09-27T06:23:40.664Z,15.06
2023-09-27T06:24:41.134Z,15.08
2023-09-27T06:25:44.873Z,15.09
2023-09-27T06:26:42.772Z,15.12
2023-09-27T06:27:46.233Z,15.12
2023-09-27T06:28:47.264Z,15.13
2023-09-27T06:29:45.394Z,15.15
2023-09-27T06:30:48.252Z,15.15
2023-09-27T06:31:48.797Z,15.15
2023-09-27T06:32:48.902Z,15.17
2023-09-27T06:33:49.255Z,15.20
2023-09-27T06:34:49.242Z,15.20
2023-09-27T06:35:49.779Z,15.21
2023-09-27T06:36:50.795Z,15.23
2023-09-27T06:37:50.953Z,15.23
2023-09-27T06:38:51.606Z,15.27
2023-09-27T06:39:53.761Z,15.27
2023-09-27T06:40:52.682Z,15.28
2023-09-27T06:41:56.308Z,15.31
2023-09-27T06:42:54.254Z,15.33
2023-09-27T06:43:55.758Z,15.41
2023-09-27T06:44:56.248Z,15.42
2023-09-27T06:45:57.771Z,15.45
2023-09-27T06:46:57.278Z,15.45
2023-09-27T06:47:57.874Z,15.49
2023-09-27T06:48:57.833Z,15.49
2023-09-27T06:49:58.755Z,15.52
2023-09-27T06:51:01.248Z,15.56
2023-09-27T06:52:01.745Z,15.60
2023-09-27T06:53:19.863Z,15.64
2023-09-27T06:54:03.216Z,15.66
2023-09-27T06:55:02.626Z,15.66
2023-09-27T06:56:04.024Z,15.68
2023-09-27T06:57:04.482Z,15.70
2023-09-27T06:58:05.400Z,15.70
2023-09-27T06:59:06.409Z,15.70
2023-09-27T07:00:08.478Z,15.72
2023-09-27T07:01:07.626Z,15.74
2023-09-27T07:02:08.082Z,15.75
2023-09-27T07:03:09.040Z,15.76
2023-09-27T07:04:10.463Z,15.79
2023-09-27T07:05:11.366Z,15.79
2023-09-27T07:06:11.841Z,15.82
2023-09-27T07:07:13.869Z,15.82
2023-09-27T07:08:12.902Z,15.85
2023-09-27T07:09:13.356Z,15.88
2023-09-27T07:10:14.308Z,15.89
2023-09-27T07:11:15.902Z,15.92
2023-09-27T07:12:16.763Z,15.94
2023-09-27T07:13:18.273Z,15.96
2023-09-27T07:14:17.353Z,15.97
2023-09-27T07:15:17.958Z,15.97
2023-09-27T07:16:20.395Z,16.00
2023-09-27T07:17:20.448Z,16.01
2023-09-27T07:18:20.022Z,16.03
2023-09-27T07:19:27.333Z,16.06
2023-09-27T07:20:22.436Z,16.09
2023-09-27T07:21:21.913Z,16.11
2023-09-27T07:22:22.817Z,16.11
2023-09-27T07:23:24.313Z,16.14
2023-09-27T07:24:24.714Z,16.15
2023-09-27T07:25:48.391Z,16.18
2023-09-27T07:26:28.012Z,16.22
2023-09-27T07:27:26.905Z,16.23
2023-09-27T07:28:29.755Z,16.30
2023-09-27T07:29:28.788Z,16.31
2023-09-27T07:30:29.210Z,16.34
2023-09-27T07:31:32.333Z,16.37
2023-09-27T07:32:30.859Z,16.40
2023-09-27T07:33:33.300Z,16.44
2023-09-27T07:34:32.252Z,16.49
2023-09-27T07:35:34.861Z,16.50
2023-09-27T07:36:34.275Z,16.55
2023-09-27T07:37:34.276Z,16.56
2023-09-27T07:38:35.298Z,16.62
2023-09-27T07:39:35.693Z,16.65
2023-09-27T07:40:37.267Z,16.68
2023-09-27T07:41:37.444Z,16.71
2023-09-27T07:42:37.936Z,16.74
2023-09-27T07:43:40.774Z,16.77
2023-09-27T07:44:40.385Z,16.80
2023-09-27T07:45:40.488Z,16.81
2023-09-27T07:46:42.875Z,16.83
2023-09-27T07:47:42.824Z,16.86
2023-09-27T07:48:42.742Z,16.92
2023-09-27T07:49:43.645Z,16.95
2023-09-27T07:50:45.310Z,16.98
2023-09-27T07:51:45.201Z,16.98
2023-09-27T07:52:47.281Z,17.03
2023-09-27T07:53:48.385Z,17.03
2023-09-27T07:54:47.344Z,17.04
2023-09-27T07:55:48.204Z,17.07
2023-09-27T07:56:49.192Z,17.07
2023-09-27T07:57:50.108Z,17.10
2023-09-27T07:58:51.173Z,17.11
2023-09-27T07:59:52.672Z,17.13
2023-09-27T08:00:53.270Z,17.17
2023-09-27T08:01:54.806Z,17.20
2023-09-27T08:02:55.419Z,17.22
2023-09-27T08:03:55.369Z,17.23
2023-09-27T08:04:57.286Z,17.25
2023-09-27T08:05:56.300Z,17.26
2023-09-27T08:06:56.756Z,17.29
2023-09-27T08:07:57.667Z,17.30
2023-09-27T08:08:58.596Z,17.33
2023-09-27T08:10:06.685Z,17.32
2023-09-27T08:11:01.314Z,17.35
2023-09-27T08:12:01.240Z,17.41
2023-09-27T08:13:02.125Z,17.41
2023-09-27T08:14:03.100Z,17.41
2023-09-27T08:15:04.780Z,17.40
2023-09-27T08:16:04.703Z,17.40
2023-09-27T08:17:05.740Z,17.43
2023-09-27T08:18:06.345Z,17.43
2023-09-27T08:19:07.242Z,17.44
2023-09-27T08:20:08.233Z,17.50
2023-09-27T08:21:09.150Z,17.54
2023-09-27T08:22:10.050Z,17.62
2023-09-27T08:23:11.014Z,17.70
2023-09-27T08:24:11.915Z,17.79
2023-09-27T08:25:12.853Z,17.87
2023-09-27T08:26:13.957Z,17.99
2023-09-27T08:27:14.513Z,18.10
2023-09-27T08:28:15.395Z,18.18
2023-09-27T08:29:16.353Z,18.27
2023-09-27T08:30:17.292Z,18.33
2023-09-27T08:31:18.037Z,18.36
2023-09-27T08:32:18.482Z,18.39
2023-09-27T08:33:19.429Z,18.40
2023-09-27T08:34:19.933Z,18.40
2023-09-27T08:35:20.919Z,18.42
2023-09-27T08:36:21.800Z,18.44
2023-09-27T08:37:22.702Z,18.46
2023-09-27T08:38:23.641Z,18.49
2023-09-27T08:39:24.550Z,18.47
2023-09-27T08:40:26.285Z,18.46
2023-09-27T08:41:26.199Z,18.47
2023-09-27T08:42:27.105Z,18.50
2023-09-27T08:43:28.775Z,18.50
2023-09-27T08:44:28.757Z,18.52
2023-09-27T08:45:29.645Z,18.57
2023-09-27T08:46:30.611Z,18.59
2023-09-27T08:47:31.538Z,18.64
2023-09-27T08:48:32.629Z,18.67
2023-09-27T08:49:32.639Z,18.74
2023-09-27T08:50:33.644Z,18.82
2023-09-27T08:51:34.050Z,18.92
2023-09-27T08:52:36.818Z,19.01
2023-09-27T08:53:36.367Z,19.02
2023-09-27T08:54:36.304Z,19.08
2023-09-27T08:55:37.191Z,19.13
2023-09-27T08:56:38.146Z,19.20
2023-09-27T08:57:39.115Z,19.28
2023-09-27T08:58:39.983Z,19.35
2023-09-27T08:59:40.947Z,19.36
2023-09-27T09:00:41.917Z,19.35
2023-09-27T09:01:42.856Z,19.38
2023-09-27T09:02:45.569Z,19.40
2023-09-27T09:03:44.824Z,19.43
2023-09-27T09:04:45.281Z,19.47
2023-09-27T09:05:46.931Z,19.48
2023-09-27T09:06:46.881Z,19.51
2023-09-27T09:07:48.795Z,19.48
2023-09-27T09:08:48.731Z,19.48
2023-09-27T09:09:49.670Z,19.46
2023-09-27T09:10:50.553Z,19.47
2023-09-27T09:11:51.480Z,19.53
2023-09-27T09:12:52.441Z,19.57
2023-09-27T09:13:54.292Z,19.65
2023-09-27T09:14:54.806Z,19.72
2023-09-27T09:15:54.754Z,19.78
2023-09-27T09:16:55.667Z,19.76
2023-09-27T09:17:56.593Z,19.72
2023-09-27T09:18:57.640Z,19.72
2023-09-27T09:19:58.191Z,19.72
2023-09-27T11:46:34.754Z,23.77
2023-09-27T11:47:35.766Z,23.72
2023-09-27T11:48:36.554Z,23.65
2023-09-27T11:49:37.047Z,23.57
2023-09-27T11:50:37.996Z,23.47
2023-09-27T11:51:38.475Z,23.46
2023-09-27T11:52:39.367Z,23.49
2023-09-27T11:53:40.322Z,23.55
2023-09-27T11:54:41.270Z,23.57
2023-09-27T11:55:42.692Z,23.58
2023-09-27T11:56:44.928Z,23.61
2023-09-27T11:57:43.646Z,23.68
2023-09-27T11:58:44.553Z,23.72
2023-09-27T11:59:46.234Z,23.71
2023-09-27T12:00:46.109Z,23.70
2023-09-27T12:01:47.039Z,23.67
2023-09-27T12:02:57.044Z,23.68
2023-09-27T12:03:52.532Z,23.67
2023-09-27T12:04:49.979Z,23.60
2023-09-27T12:05:52.671Z,23.55
2023-09-27T12:06:53.314Z,23.57
2023-09-27T12:07:53.341Z,23.60
2023-09-27T12:08:53.343Z,23.60
2023-09-27T12:09:53.926Z,23.55
2023-09-27T12:10:56.636Z,23.57
2023-09-27T12:11:55.564Z,23.52
2023-09-27T12:12:58.144Z,23.45
2023-09-27T12:13:57.092Z,23.34
2023-09-27T12:14:58.038Z,23.27
2023-09-27T12:15:59.650Z,23.24
2023-09-27T12:16:59.712Z,23.22
2023-09-27T12:18:00.338Z,23.22
2023-09-27T12:19:03.656Z,23.17
2023-09-27T12:20:01.553Z,23.15
2023-09-27T12:21:02.480Z,23.14
2023-09-27T12:22:04.156Z,23.15
2023-09-27T12:23:05.685Z,23.11
2023-09-27T12:24:04.622Z,23.15
2023-09-27T12:25:06.134Z,23.29
2023-09-27T12:26:06.052Z,23.40
2023-09-27T12:27:06.981Z,23.40
2023-09-27T12:28:08.652Z,23.40
2023-09-27T12:29:08.562Z,23.39
2023-09-27T12:30:09.482Z,23.45
2023-09-27T12:31:10.461Z,23.45
2023-09-27T12:32:11.503Z,23.42
2023-09-27T12:33:14.739Z,23.38
2023-09-27T12:34:12.624Z,23.27
2023-09-27T12:35:13.529Z,23.22
2023-09-27T12:36:14.440Z,23.19
2023-09-27T12:37:15.407Z,23.14
2023-09-27T12:38:18.181Z,23.08
2023-09-27T12:39:20.778Z,23.02
2023-09-27T12:40:17.823Z,23.01
2023-09-27T12:41:18.771Z,23.07
2023-09-27T13:32:35.581Z,22.71
2023-09-27T13:33:37.730Z,22.74
2023-09-27T13:34:36.635Z,22.78
2023-09-27T13:35:38.250Z,22.80
2023-09-27T13:36:39.722Z,22.84
2023-09-27T13:37:41.693Z,22.84
2023-09-27T13:38:40.169Z,22.87
2023-09-27T13:39:41.096Z,22.86
2023-09-27T13:40:42.029Z,22.84
2023-09-27T13:41:43.854Z,22.84
2023-09-27T13:42:43.904Z,22.84
2023-09-27T13:43:44.450Z,22.84
2023-09-27T13:44:46.289Z,22.82
2023-09-27T13:45:47.964Z,22.86
2023-09-27T13:46:50.568Z,22.87
2023-09-27T13:47:48.122Z,22.89
2023-09-27T13:48:48.527Z,22.87
2023-09-27T13:49:51.202Z,22.87
2023-09-27T13:50:50.177Z,22.86
2023-09-27T13:51:50.677Z,22.83
2023-09-27T13:52:52.245Z,22.82
2023-09-27T13:53:52.217Z,22.82
2023-09-27T13:54:54.210Z,22.82
2023-09-27T13:55:53.665Z,22.80
2023-09-27T13:56:54.612Z,22.80
2023-09-27T13:57:57.229Z,22.80
2023-09-27T13:58:56.711Z,22.77
2023-09-27T13:59:57.200Z,22.75
2023-09-27T14:00:58.187Z,22.74
2023-09-27T14:01:58.761Z,22.74
2023-09-27T14:02:59.332Z,22.75
2023-09-27T14:03:59.790Z,22.75
2023-09-27T14:05:00.741Z,22.78
2023-09-27T14:06:02.253Z,22.82
2023-09-27T14:07:02.181Z,22.82
2023-09-27T14:08:03.099Z,22.83
2023-09-27T14:09:04.100Z,22.84
2023-09-27T14:10:04.571Z,22.84
2023-09-27T14:11:05.564Z,22.82
2023-09-27T14:12:06.531Z,22.83
2023-09-27T14:13:08.208Z,22.83
2023-09-27T14:14:08.288Z,22.87
2023-09-27T14:15:08.759Z,22.89
2023-09-27T14:16:09.275Z,22.90
2023-09-27T14:17:09.762Z,22.87
2023-09-27T14:18:11.360Z,22.87
2023-09-27T14:19:11.281Z,22.89
2023-09-27T14:20:12.256Z,22.93
2023-09-27T14:21:13.753Z,22.94
2023-09-27T14:22:13.661Z,22.92
2023-09-27T14:23:14.603Z,22.83
2023-09-27T14:24:15.905Z,22.77
2023-09-27T14:25:16.384Z,22.75
2023-09-27T14:26:19.255Z,22.74
2023-09-27T14:27:18.139Z,22.77
2023-09-27T14:28:19.730Z,22.77
2023-09-27T14:29:29.898Z,22.75
2023-09-27T14:30:21.599Z,22.78
2023-09-27T14:31:21.134Z,22.77
2023-09-27T14:32:22.241Z,22.77
2023-09-27T14:33:22.685Z,22.75
2023-09-27T14:34:23.705Z,22.78
2023-09-27T14:35:24.142Z,22.77
2023-09-27T14:36:25.069Z,22.74
2023-09-27T14:37:25.968Z,22.72
2023-09-27T14:38:26.946Z,22.68
2023-09-27T14:39:27.895Z,22.68
2023-09-27T14:40:29.774Z,22.68
2023-09-27T14:41:29.657Z,22.67
2023-09-27T14:42:30.617Z,22.67
2023-09-27T14:43:31.592Z,22.68
2023-09-27T14:44:33.246Z,22.68
2023-09-27T14:45:33.223Z,22.69
2023-09-27T14:46:34.971Z,22.71
2023-09-27T14:47:36.757Z,22.74
2023-09-27T14:48:35.727Z,22.72
2023-09-27T14:49:36.745Z,22.72
2023-09-27T14:50:37.136Z,22.75
2023-09-27T14:51:38.077Z,22.72
2023-09-27T14:52:39.059Z,22.74
2023-09-27T14:53:39.626Z,22.74
2023-09-27T14:54:41.238Z,22.72
2023-09-27T14:55:41.178Z,22.75
2023-09-27T14:56:42.089Z,22.78
2023-09-27T14:57:43.036Z,22.78
2023-09-27T15:06:19.180Z,22.90
2023-09-27T15:07:19.208Z,22.90
2023-09-27T15:08:21.150Z,22.93
2023-09-27T15:09:20.565Z,22.90
2023-09-27T15:10:22.407Z,22.87
2023-09-27T15:11:23.138Z,22.86
2023-09-27T15:12:23.644Z,22.80
2023-09-27T15:13:23.559Z,22.77
2023-09-27T15:14:25.150Z,22.77
2023-09-27T15:15:25.077Z,22.75
2023-09-27T15:16:26.153Z,22.75
2023-09-27T15:17:26.625Z,22.74
2023-09-27T15:18:27.558Z,22.71
2023-09-27T15:19:29.188Z,22.69
2023-09-27T15:20:29.192Z,22.71
2023-09-27T15:21:31.685Z,22.71
2023-09-27T15:22:35.697Z,22.71
2023-09-27T15:23:31.578Z,22.69
2023-09-27T15:24:35.967Z,22.62
2023-09-27T15:25:33.561Z,22.59
2023-09-27T15:26:33.966Z,22.59
2023-09-27T15:27:34.887Z,22.64
2023-09-27T15:28:37.713Z,22.64
2023-09-27T15:29:37.163Z,22.65
2023-09-27T15:30:38.178Z,22.64
2023-09-27T15:31:39.710Z,22.60
2023-09-27T15:32:38.671Z,22.56
2023-09-27T15:33:41.169Z,22.54
2023-09-27T15:34:40.737Z,22.53
2023-09-27T15:35:40.682Z,22.49
2023-09-27T15:36:43.186Z,22.39
2023-09-27T15:37:43.166Z,22.35
2023-09-27T15:38:43.117Z,22.23
2023-09-27T15:39:44.129Z,22.22
2023-09-27T15:40:44.569Z,22.22
2023-09-27T15:41:45.465Z,22.19
2023-09-27T15:42:46.377Z,22.19
2023-09-27T15:43:49.317Z,22.19
2023-09-27T15:44:48.160Z,22.17
2023-09-27T15:45:49.687Z,22.20
2023-09-27T15:46:49.676Z,22.22
2023-09-27T15:47:50.083Z,22.22
2023-09-27T15:48:51.659Z,22.25
2023-09-27T15:49:51.580Z,22.20
2023-09-27T15:50:52.469Z,22.12
2023-09-27T15:51:53.302Z,22.07
2023-09-27T15:52:54.236Z,22.04
2023-09-27T15:54:03.654Z,22.06
2023-09-27T15:54:56.982Z,22.06
2023-09-27T15:55:58.728Z,22.04
2023-09-27T15:56:58.171Z,21.98
2023-09-27T15:57:58.625Z,22.01
2023-09-27T15:58:59.648Z,22.01
2023-09-27T16:00:00.125Z,22.01
2023-09-27T16:01:01.099Z,21.95
2023-09-27T16:02:02.057Z,21.95
2023-09-27T16:03:03.149Z,21.94
2023-09-27T16:04:03.627Z,21.92
2023-09-27T16:05:04.589Z,21.95
2023-09-27T16:06:05.762Z,21.95
2023-09-27T16:07:06.268Z,21.99
2023-09-27T16:08:07.189Z,22.02
2023-09-27T16:09:08.130Z,22.09
2023-09-27T16:10:09.079Z,22.13
2023-09-27T16:11:10.087Z,22.14
2023-09-27T16:12:10.537Z,22.16
2023-09-27T16:13:13.197Z,22.14
2023-09-27T16:14:12.845Z,22.14
2023-09-27T16:15:13.704Z,22.04
2023-09-27T16:16:15.194Z,22.04
2023-09-27T16:17:15.162Z,22.01
2023-09-27T16:18:15.575Z,22.01
2023-09-27T16:19:17.339Z,21.92
2023-09-27T16:20:19.248Z,21.90
2023-09-27T16:21:18.204Z,21.82
2023-09-27T16:22:19.227Z,21.81
2023-09-27T16:23:20.080Z,21.81
2023-09-27T16:24:21.004Z,21.81
2023-09-27T16:25:21.940Z,21.78
2023-09-27T16:26:22.448Z,21.76